Needles Airport
KEED : now visible

Airfield :











YOU CAN JOIN US ON...

 
LOGIN :

Register | Disclaimer

   EN    FR    IT 

 









Legend :    VFR   Marginal VFR   IFR   Intensive IFR   Very Intensive IFR
Visi :
Ceiling :
>= 8 km
>= 3000ft
5 to 8 km
1000 to 3000 ft
1500m to 5 km
500 to 1000 ft
800 to 1500m
200 to 500 ft
< 800m
< 200 ft
Symbols :   Thunderstorms  Fog  Heavy snow  Heavy precipitations  Wind > 20 kt






- Airport Elevation : 983 ft


KEED - Needles

CURRENT METAR :
  • 300956Z AUTO 00000KT 10SM CLR 28/14 A2985 RMK AO2 SLP074 T02830139

EXPIRED METARs :
  • 300856Z AUTO 00000KT 10SM CLR 29/14 A2984 RMK AO2 SLP070 T02940139 51001
  • 300756Z AUTO 16003KT 10SM CLR 31/14 A2984 RMK AO2 SLP069 T03060144 403830278

TAF KEED
Valid from the 30 at 06:00 until the 01 at 06:00 UTC


300520Z 3006/0106 21007KT P6SM FEW250
FM300900 VRB05KT P6SM SKC
FM301700 17010KT P6SM SKC
FM302200 21011KT P6SM SKC
FM010200 23008KT P6SM SKC
KZLA FIR / North America



MET'MAP, your aeronautical weather chart ! - Copyright ORBIFLY December 2007 - Disclaimer

ORBIFLY MET'MAP TEAM :

Programming & Development : Alexandra Zaïnal
Original concept : Baudouin d'Aumeries
Technical & hardware support : Manuel Goepfert
Assistance : Marc-Olivier Méhu




SOURCES & CREDITS :

   NOAA       Earth
Advisory